Time;durP1;ratioP1;P1;durP2;ratioP2;P2;SDS_P1;SDS_P2;PMS_P1;PMS_P2;Temp;Humidity;BMP_temperature;BMP_pressure;BME280_temperature;BME280_humidity;BME280_pressure;Samples;Min_cycle;Max_cycle;Signal;HPM_P1;HPM_P2
2023/10/29 00:01:42;;;;;;;25.52;3.50;;;;;;;;;;5074000;28;20037;-73
2023/10/29 00:04:08;;;;;;;25.15;3.70;;;;;;;;;;5072939;28;20063;-74
2023/10/29 00:06:35;;;;;;;24.00;4.00;;;;;;;;;;5074333;28;20037;-73
2023/10/29 00:09:02;;;;;;;18.83;3.38;;;;;;;;;;5074158;28;20090;-73
2023/10/29 00:11:29;;;;;;;32.05;4.43;;;;;;;;;;5074249;28;20040;-74
2023/10/29 00:13:56;;;;;;;23.48;3.00;;;;;;;;;;5074079;28;20071;-73
2023/10/29 00:16:23;;;;;;;27.63;4.47;;;;;;;;;;5074159;28;20044;-74
2023/10/29 00:18:50;;;;;;;27.95;3.20;;;;;;;;;;5056272;28;20391;-74
2023/10/29 00:21:17;;;;;;;23.05;3.97;;;;;;;;;;5072906;28;20052;-73
2023/10/29 00:23:43;;;;;;;34.75;4.35;;;;;;;;;;5072667;28;20048;-73
2023/10/29 00:26:10;;;;;;;34.60;5.13;;;;;;;;;;5073907;28;20139;-74
2023/10/29 00:28:37;;;;;;;32.85;4.47;;;;;;;;;;5073729;28;20072;-73
2023/10/29 00:31:03;;;;;;;29.90;3.97;;;;;;;;;;5072574;28;20040;-74
2023/10/29 00:33:30;;;;;;;32.70;3.90;;;;;;;;;;5073734;28;20094;-73
2023/10/29 00:35:57;;;;;;;27.40;4.10;;;;;;;;;;5073521;28;20520;-74
2023/10/29 00:38:24;;;;;;;19.50;3.13;;;;;;;;;;5073748;28;20358;-74
2023/10/29 00:40:52;;;;;;;27.15;4.10;;;;;;;;;;5073647;28;20131;-74
2023/10/29 00:43:18;;;;;;;26.08;4.32;;;;;;;;;;5073640;28;20454;-73
2023/10/29 00:45:51;;;;;;;27.33;3.50;;;;;;;;;;5073546;28;20047;-74
2023/10/29 00:48:18;;;;;;;24.13;4.13;;;;;;;;;;5073457;28;20060;-73
2023/10/29 00:50:45;;;;;;;22.23;3.30;;;;;;;;;;5073657;28;20051;-74
2023/10/29 00:53:12;;;;;;;23.90;3.65;;;;;;;;;;5072490;28;20067;-74
2023/10/29 00:55:40;;;;;;;26.80;3.05;;;;;;;;;;5073232;28;20051;-73
2023/10/29 00:58:07;;;;;;;27.13;3.40;;;;;;;;;;5071816;28;20076;-73
2023/10/29 01:00:34;;;;;;;23.05;3.55;;;;;;;;;;5072465;28;20032;-74
2023/10/29 01:03:00;;;;;;;17.23;3.13;;;;;;;;;;5071078;28;20044;-74
2023/10/29 01:05:27;;;;;;;22.83;3.35;;;;;;;;;;5069115;28;20051;-73
2023/10/29 01:07:54;;;;;;;29.02;3.40;;;;;;;;;;5071028;28;20249;-74
2023/10/29 01:10:21;;;;;;;24.02;3.53;;;;;;;;;;5070435;28;20169;-73
2023/10/29 01:12:48;;;;;;;19.25;2.90;;;;;;;;;;5069697;28;20040;-73
2023/10/29 01:15:15;;;;;;;15.45;3.35;;;;;;;;;;5070554;28;20033;-73
2023/10/29 01:17:42;;;;;;;27.63;3.97;;;;;;;;;;5070664;28;20105;-74
2023/10/29 01:20:11;;;;;;;22.60;3.63;;;;;;;;;;5070606;28;20360;-73
2023/10/29 01:22:38;;;;;;;31.95;4.30;;;;;;;;;;5070675;28;20506;-73
2023/10/29 01:25:09;;;;;;;21.85;2.88;;;;;;;;;;5070542;28;20047;-74
2023/10/29 01:27:38;;;;;;;22.90;4.15;;;;;;;;;;5070599;28;20049;-73
2023/10/29 01:30:06;;;;;;;21.83;3.78;;;;;;;;;;5071151;28;20044;-74
2023/10/29 01:32:33;;;;;;;26.65;4.68;;;;;;;;;;5070194;28;20036;-73
2023/10/29 01:35:00;;;;;;;24.40;3.92;;;;;;;;;;5070891;28;20044;-74
2023/10/29 01:37:27;;;;;;;35.38;4.28;;;;;;;;;;5070220;28;20098;-73
2023/10/29 01:39:55;;;;;;;28.85;4.00;;;;;;;;;;5070564;28;20045;-74
2023/10/29 01:42:21;;;;;;;29.75;3.80;;;;;;;;;;5070222;28;20075;-74
2023/10/29 01:44:48;;;;;;;25.90;4.25;;;;;;;;;;5070577;28;20036;-74
2023/10/29 01:47:15;;;;;;;21.52;3.03;;;;;;;;;;5070211;28;20136;-73
2023/10/29 01:49:42;;;;;;;24.85;4.10;;;;;;;;;;5070336;28;20036;-73
2023/10/29 01:52:09;;;;;;;22.73;3.53;;;;;;;;;;5070333;28;20040;-73
2023/10/29 01:54:36;;;;;;;24.52;4.03;;;;;;;;;;5070230;28;20044;-74
2023/10/29 01:57:04;;;;;;;32.55;3.45;;;;;;;;;;5070412;28;20522;-74
2023/10/29 01:59:32;;;;;;;25.75;3.85;;;;;;;;;;5069832;28;20044;-74
2023/10/29 02:01:59;;;;;;;25.70;3.47;;;;;;;;;;5069202;28;20036;-73
2023/10/29 02:04:26;;;;;;;23.17;3.38;;;;;;;;;;5071076;28;20064;-73
2023/10/29 02:06:54;;;;;;;24.13;3.60;;;;;;;;;;5073161;28;20043;-73
2023/10/29 02:09:21;;;;;;;22.45;3.20;;;;;;;;;;5073854;28;20048;-74
2023/10/29 02:11:48;;;;;;;29.08;3.92;;;;;;;;;;5072716;28;20036;-74
2023/10/29 02:14:15;;;;;;;27.23;3.50;;;;;;;;;;5074015;28;20375;-74
2023/10/29 02:16:42;;;;;;;23.38;3.50;;;;;;;;;;5072533;28;20172;-74
2023/10/29 02:19:09;;;;;;;26.25;3.30;;;;;;;;;;5072402;28;20055;-73
2023/10/29 02:21:35;;;;;;;24.58;3.22;;;;;;;;;;5074110;28;20078;-74
2023/10/29 02:24:02;;;;;;;25.60;3.70;;;;;;;;;;5074070;28;20045;-73
2023/10/29 02:26:29;;;;;;;23.10;3.35;;;;;;;;;;5073489;28;20127;-74
2023/10/29 02:28:56;;;;;;;23.48;3.97;;;;;;;;;;5072571;28;20386;-74
2023/10/29 02:31:22;;;;;;;23.67;3.33;;;;;;;;;;5071809;28;20449;-73
2023/10/29 02:33:49;;;;;;;29.52;4.18;;;;;;;;;;5073971;28;20417;-74
2023/10/29 02:36:16;;;;;;;20.58;3.17;;;;;;;;;;5072232;28;20066;-74
2023/10/29 02:38:43;;;;;;;24.85;3.55;;;;;;;;;;5072559;28;20040;-74
2023/10/29 02:41:10;;;;;;;28.95;3.72;;;;;;;;;;5072727;28;20447;-74
2023/10/29 02:43:40;;;;;;;30.70;4.53;;;;;;;;;;5072623;28;20079;-74
2023/10/29 02:46:07;;;;;;;29.42;3.92;;;;;;;;;;5073331;28;20036;-74
2023/10/29 02:48:34;;;;;;;25.10;3.25;;;;;;;;;;5073505;28;20033;-74
2023/10/29 02:51:01;;;;;;;27.55;4.00;;;;;;;;;;5073719;28;20383;-74
2023/10/29 02:53:31;;;;;;;28.20;3.53;;;;;;;;;;5072944;28;20045;-75
2023/10/29 02:55:59;;;;;;;31.50;4.10;;;;;;;;;;5071760;28;20360;-73
2023/10/29 02:58:26;;;;;;;;;;;;;;;;;;5073226;28;20475;-74
2023/10/29 03:00:53;;;;;;;22.90;3.55;;;;;;;;;;5073212;28;19927;-74
2023/10/29 03:03:20;;;;;;;33.30;3.90;;;;;;;;;;5071102;28;20100;-74
2023/10/29 03:05:47;;;;;;;24.60;3.45;;;;;;;;;;5073132;28;20478;-75
2023/10/29 03:08:23;;;;;;;23.00;3.90;;;;;;;;;;5072830;28;20049;-74
2023/10/29 03:10:50;;;;;;;27.23;3.70;;;;;;;;;;5073220;28;20387;-74
2023/10/29 03:13:17;;;;;;;21.65;3.63;;;;;;;;;;5072630;28;20131;-74
2023/10/29 03:15:44;;;;;;;35.45;4.00;;;;;;;;;;5072015;28;20475;-74
2023/10/29 03:18:13;;;;;;;28.45;3.30;;;;;;;;;;5038366;28;20060;-74
2023/10/29 03:20:40;;;;;;;25.95;4.05;;;;;;;;;;5072984;28;20029;-74
2023/10/29 03:23:08;;;;;;;31.92;3.53;;;;;;;;;;5072614;28;20093;-74
2023/10/29 03:25:34;;;;;;;31.20;3.78;;;;;;;;;;5072991;28;20051;-74
2023/10/29 03:28:01;;;;;;;23.95;3.40;;;;;;;;;;5071772;28;20054;-74
2023/10/29 03:30:28;;;;;;;29.10;3.95;;;;;;;;;;5070782;28;20032;-74
2023/10/29 03:32:54;;;;;;;22.90;3.50;;;;;;;;;;5073094;28;20051;-73
2023/10/29 03:35:21;;;;;;;23.35;4.78;;;;;;;;;;5072393;28;20047;-73
2023/10/29 03:37:48;;;;;;;23.15;2.63;;;;;;;;;;5071393;28;20045;-73
2023/10/29 03:40:15;;;;;;;13.90;1.52;;;;;;;;;;5072486;28;20344;-73
2023/10/29 03:42:41;;;;;;;13.20;1.77;;;;;;;;;;5072681;28;20043;-74
2023/10/29 03:45:08;;;;;;;11.35;1.60;;;;;;;;;;5071206;28;20114;-73
2023/10/29 03:47:35;;;;;;;10.90;1.70;;;;;;;;;;5071444;28;20048;-73
2023/10/29 03:50:02;;;;;;;13.75;1.83;;;;;;;;;;5072969;28;20040;-74
2023/10/29 03:52:29;;;;;;;10.30;1.85;;;;;;;;;;5072871;28;21020;-74
2023/10/29 03:54:56;;;;;;;12.00;1.65;;;;;;;;;;5074107;28;20040;-74
2023/10/29 03:57:22;;;;;;;11.93;1.67;;;;;;;;;;5071502;28;20052;-73
2023/10/29 03:59:49;;;;;;;8.35;1.90;;;;;;;;;;5072940;28;20098;-73
2023/10/29 04:02:16;;;;;;;13.70;2.00;;;;;;;;;;5071966;28;20040;-73
2023/10/29 04:04:42;;;;;;;13.25;2.00;;;;;;;;;;5071049;28;20102;-74
2023/10/29 04:07:23;;;;;;;17.80;2.00;;;;;;;;;;5071831;28;20044;-73
2023/10/29 04:09:49;;;;;;;23.17;3.42;;;;;;;;;;5072461;28;20037;-73
2023/10/29 04:12:16;;;;;;;17.27;2.95;;;;;;;;;;5070469;28;20461;-74
2023/10/29 04:14:43;;;;;;;29.20;3.72;;;;;;;;;;5072557;28;20064;-74
2023/10/29 04:17:10;;;;;;;24.38;4.20;;;;;;;;;;5072052;28;20048;-74
2023/10/29 04:19:39;;;;;;;23.10;3.17;;;;;;;;;;5072096;28;20044;-74
2023/10/29 04:22:06;;;;;;;16.77;2.10;;;;;;;;;;5070889;28;20029;-74
2023/10/29 04:24:33;;;;;;;14.50;2.42;;;;;;;;;;5072028;28;20032;-74
2023/10/29 04:27:00;;;;;;;19.02;2.83;;;;;;;;;;5071923;28;20040;-74
2023/10/29 04:29:26;;;;;;;31.95;3.28;;;;;;;;;;5071750;28;20102;-73
2023/10/29 04:31:53;;;;;;;25.48;3.70;;;;;;;;;;5072092;28;20040;-74
2023/10/29 04:34:21;;;;;;;33.05;4.32;;;;;;;;;;5054353;28;20040;-74
2023/10/29 04:36:51;;;;;;;8.60;1.38;;;;;;;;;;5070699;28;20508;-73
2023/10/29 04:39:19;;;;;;;6.13;1.27;;;;;;;;;;5070654;28;20048;-74
2023/10/29 04:41:46;;;;;;;7.13;1.15;;;;;;;;;;5071918;28;20090;-73
2023/10/29 04:44:13;;;;;;;7.03;1.02;;;;;;;;;;5071401;28;20040;-73
2023/10/29 04:46:40;;;;;;;2.25;0.50;;;;;;;;;;5071215;28;20119;-74
2023/10/29 04:49:07;;;;;;;2.60;0.60;;;;;;;;;;5069574;28;20083;-74
2023/10/29 04:51:34;;;;;;;2.08;0.40;;;;;;;;;;5071750;28;20422;-73
2023/10/29 04:54:00;;;;;;;2.25;0.45;;;;;;;;;;5071683;28;20045;-74
2023/10/29 04:56:27;;;;;;;4.90;0.70;;;;;;;;;;5069287;28;20526;-74
2023/10/29 04:58:54;;;;;;;2.97;0.70;;;;;;;;;;5071611;28;20044;-73
2023/10/29 05:01:21;;;;;;;6.05;0.75;;;;;;;;;;5071090;28;20606;-73
2023/10/29 05:03:48;;;;;;;5.47;0.90;;;;;;;;;;5071248;28;20534;-73
2023/10/29 05:06:21;;;;;;;5.03;1.13;;;;;;;;;;5071148;28;20060;-73
2023/10/29 05:08:49;;;;;;;9.35;0.90;;;;;;;;;;5071557;28;20047;-74
2023/10/29 05:11:16;;;;;;;;;;;;;;;;;;5071402;28;20050;-74
2023/10/29 05:13:43;;;;;;;9.43;1.08;;;;;;;;;;5071219;28;19920;-74
2023/10/29 05:16:11;;;;;;;6.07;0.80;;;;;;;;;;5071202;28;20048;-74
2023/10/29 05:18:38;;;;;;;9.50;1.10;;;;;;;;;;5069924;28;20146;-74
2023/10/29 05:21:05;;;;;;;8.45;1.50;;;;;;;;;;5070905;28;20533;-73
2023/10/29 05:23:32;;;;;;;10.70;1.15;;;;;;;;;;5069802;28;20106;-74
2023/10/29 05:25:59;;;;;;;8.40;1.50;;;;;;;;;;5071335;28;20545;-73
2023/10/29 05:28:26;;;;;;;8.05;1.42;;;;;;;;;;5070700;28;20041;-74
2023/10/29 05:30:53;;;;;;;6.20;0.98;;;;;;;;;;5070048;28;20044;-73
2023/10/29 05:33:20;;;;;;;11.68;1.08;;;;;;;;;;5070639;28;20048;-73
2023/10/29 05:35:47;;;;;;;13.18;1.30;;;;;;;;;;5070926;28;20510;-73
2023/10/29 05:38:15;;;;;;;8.70;1.20;;;;;;;;;;5070808;28;20147;-74
2023/10/29 05:40:42;;;;;;;7.93;1.13;;;;;;;;;;5074156;28;20474;-74
2023/10/29 05:43:09;;;;;;;9.85;1.30;;;;;;;;;;5073706;28;20090;-74
2023/10/29 05:45:35;;;;;;;15.88;1.48;;;;;;;;;;5073889;28;20045;-74
2023/10/29 05:48:02;;;;;;;9.23;1.02;;;;;;;;;;5073936;28;20471;-75
2023/10/29 05:50:29;;;;;;;12.15;1.40;;;;;;;;;;5074724;28;20061;-77
2023/10/29 05:52:56;;;;;;;7.97;0.90;;;;;;;;;;5075123;28;20037;-73
2023/10/29 05:55:23;;;;;;;12.35;1.35;;;;;;;;;;5074393;28;20055;-73
2023/10/29 05:57:50;;;;;;;16.80;1.75;;;;;;;;;;5073100;28;20131;-73
2023/10/29 06:00:17;;;;;;;12.30;1.10;;;;;;;;;;5067468;28;20052;-74
2023/10/29 06:02:44;;;;;;;20.80;2.67;;;;;;;;;;5071874;28;20044;-74
2023/10/29 06:05:11;;;;;;;14.57;1.40;;;;;;;;;;5072956;28;20413;-75
2023/10/29 06:07:42;;;;;;;25.65;2.63;;;;;;;;;;5071854;28;20048;-74
2023/10/29 06:10:13;;;;;;;9.30;1.15;;;;;;;;;;5071584;28;20082;-75
2023/10/29 06:12:41;;;;;;;17.50;2.33;;;;;;;;;;5060442;28;20056;-74
2023/10/29 06:15:12;;;;;;;16.70;1.40;;;;;;;;;;5071214;28;20076;-73
2023/10/29 06:17:39;;;;;;;19.30;1.90;;;;;;;;;;5071563;28;20124;-73
2023/10/29 06:20:11;;;;;;;21.90;2.05;;;;;;;;;;5072735;28;20036;-73
2023/10/29 06:22:38;;;;;;;18.20;1.50;;;;;;;;;;5071107;28;20101;-74
2023/10/29 06:25:05;;;;;;;13.55;1.60;;;;;;;;;;5072824;28;20040;-74
2023/10/29 06:27:32;;;;;;;12.45;2.17;;;;;;;;;;5072674;28;20045;-74
2023/10/29 06:29:59;;;;;;;6.45;1.02;;;;;;;;;;5072840;28;20054;-74
2023/10/29 06:32:26;;;;;;;13.80;1.10;;;;;;;;;;5072233;28;20048;-74
2023/10/29 06:34:53;;;;;;;19.52;1.60;;;;;;;;;;5071482;28;20099;-75
2023/10/29 06:37:20;;;;;;;5.03;0.63;;;;;;;;;;5072189;28;20044;-73
2023/10/29 06:39:46;;;;;;;8.02;1.48;;;;;;;;;;5070870;28;20515;-74
2023/10/29 06:42:13;;;;;;;8.40;1.02;;;;;;;;;;5072271;28;20049;-74
2023/10/29 06:44:40;;;;;;;8.63;1.63;;;;;;;;;;5072256;28;20044;-72
2023/10/29 06:47:07;;;;;;;10.77;1.70;;;;;;;;;;5071018;28;20173;-74
2023/10/29 06:49:34;;;;;;;16.40;1.88;;;;;;;;;;5071024;28;20093;-74
2023/10/29 06:52:00;;;;;;;21.17;2.38;;;;;;;;;;5072372;28;20043;-73
2023/10/29 06:54:27;;;;;;;12.88;2.33;;;;;;;;;;5071943;28;20445;-74
2023/10/29 06:56:54;;;;;;;14.70;2.40;;;;;;;;;;5072049;28;20044;-73
2023/10/29 06:59:21;;;;;;;21.63;2.92;;;;;;;;;;5071771;28;20333;-74
2023/10/29 07:01:49;;;;;;;13.40;2.42;;;;;;;;;;5072131;28;20044;-76
2023/10/29 07:04:16;;;;;;;17.20;2.17;;;;;;;;;;5072059;28;20071;-74
2023/10/29 07:06:46;;;;;;;20.50;2.20;;;;;;;;;;5073199;28;20045;-74
2023/10/29 07:09:15;;;;;;;11.70;2.25;;;;;;;;;;5071267;28;20044;-73
2023/10/29 07:11:43;;;;;;;15.05;2.20;;;;;;;;;;5073428;28;20162;-74
2023/10/29 07:14:10;;;;;;;14.27;1.73;;;;;;;;;;5071755;28;20048;-74
2023/10/29 07:16:43;;;;;;;19.13;2.20;;;;;;;;;;5071889;28;20037;-74
2023/10/29 07:19:11;;;;;;;14.77;1.63;;;;;;;;;;5071588;28;20036;-74
2023/10/29 07:21:38;;;;;;;11.10;2.38;;;;;;;;;;5073033;28;20057;-74
2023/10/29 07:24:06;;;;;;;15.60;2.15;;;;;;;;;;5072768;28;20040;-73
2023/10/29 07:26:33;;;;;;;14.45;2.00;;;;;;;;;;5073144;28;20151;-74
2023/10/29 07:29:03;;;;;;;13.77;1.92;;;;;;;;;;5073054;28;20128;-73
2023/10/29 07:31:30;;;;;;;12.93;2.30;;;;;;;;;;5072640;28;20049;-74
2023/10/29 07:33:57;;;;;;;19.65;2.92;;;;;;;;;;5058651;28;20460;-74
2023/10/29 07:36:24;;;;;;;18.30;1.95;;;;;;;;;;5071267;28;20449;-74
2023/10/29 07:38:51;;;;;;;30.35;3.08;;;;;;;;;;5071599;28;20130;-74
2023/10/29 07:41:19;;;;;;;16.08;2.20;;;;;;;;;;5058607;28;20040;-74
2023/10/29 07:43:46;;;;;;;16.88;2.55;;;;;;;;;;5071822;28;20044;-75
2023/10/29 07:46:14;;;;;;;14.82;2.25;;;;;;;;;;5072624;28;20531;-74
2023/10/29 07:48:41;;;;;;;18.63;3.10;;;;;;;;;;5067022;28;20036;-73
2023/10/29 07:51:09;;;;;;;15.93;1.80;;;;;;;;;;5068825;28;20090;-74
2023/10/29 07:53:36;;;;;;;14.85;2.20;;;;;;;;;;5054054;28;20067;-74
2023/10/29 07:56:11;;;;;;;20.35;3.35;;;;;;;;;;5072367;28;20055;-74
2023/10/29 07:58:38;;;;;;;21.25;2.63;;;;;;;;;;5070960;28;20032;-73
2023/10/29 08:01:17;;;;;;;11.18;1.70;;;;;;;;;;5071611;28;20380;-74
2023/10/29 08:03:46;;;;;;;18.48;7.72;;;;;;;;;;5068801;28;20132;-74
2023/10/29 08:06:13;;;;;;;16.30;4.10;;;;;;;;;;5072321;28;20086;-74
2023/10/29 08:08:40;;;;;;;30.67;13.20;;;;;;;;;;5069892;28;20052;-74
2023/10/29 08:11:17;;;;;;;26.65;12.32;;;;;;;;;;5063318;28;20052;-74
2023/10/29 08:13:43;;;;;;;16.83;4.20;;;;;;;;;;5065492;28;20037;-76
2023/10/29 08:16:11;;;;;;;18.90;2.83;;;;;;;;;;5049820;28;20045;-74
2023/10/29 08:18:38;;;;;;;24.92;6.43;;;;;;;;;;5052134;28;20382;-75
2023/10/29 08:21:06;;;;;;;22.55;4.88;;;;;;;;;;5050078;28;20483;-75
2023/10/29 08:23:33;;;;;;;22.40;2.58;;;;;;;;;;5049652;28;20045;-75
2023/10/29 08:26:00;;;;;;;23.73;2.92;;;;;;;;;;5051248;28;20060;-75
2023/10/29 08:28:27;;;;;;;14.77;2.83;;;;;;;;;;5063343;28;20494;-74
2023/10/29 08:30:55;;;;;;;23.88;3.05;;;;;;;;;;5055743;28;20034;-75
2023/10/29 08:33:21;;;;;;;17.45;2.53;;;;;;;;;;5062493;28;20131;-75
2023/10/29 08:35:48;;;;;;;18.42;3.45;;;;;;;;;;5050443;28;20040;-75
2023/10/29 08:38:15;;;;;;;20.45;3.30;;;;;;;;;;5050458;28;20118;-75
2023/10/29 08:40:42;;;;;;;22.02;4.75;;;;;;;;;;5049316;28;20231;-75
2023/10/29 08:43:09;;;;;;;15.02;3.10;;;;;;;;;;5050397;28;20119;-75
2023/10/29 08:45:36;;;;;;;15.07;2.22;;;;;;;;;;5056830;28;20063;-75
2023/10/29 08:48:07;;;;;;;25.52;3.85;;;;;;;;;;5072747;28;20115;-75
2023/10/29 08:50:35;;;;;;;18.48;3.63;;;;;;;;;;5058591;28;20040;-75
2023/10/29 08:53:01;;;;;;;21.88;3.20;;;;;;;;;;5050462;28;20044;-75
2023/10/29 08:55:28;;;;;;;26.25;5.28;;;;;;;;;;5048944;28;20115;-75
2023/10/29 08:57:55;;;;;;;18.30;3.95;;;;;;;;;;5050921;28;20037;-74
2023/10/29 09:00:22;;;;;;;28.17;9.85;;;;;;;;;;5032338;28;20049;-75
2023/10/29 09:02:52;;;;;;;;;;;;;;;;;;5050132;28;20479;-75
2023/10/29 09:05:19;;;;;;;22.45;3.45;;;;;;;;;;5049762;28;19964;-74
2023/10/29 09:07:46;;;;;;;20.83;3.22;;;;;;;;;;5051647;28;20068;-75
2023/10/29 09:10:13;;;;;;;18.00;3.63;;;;;;;;;;5048935;28;20052;-74
2023/10/29 09:12:39;;;;;;;22.88;4.32;;;;;;;;;;5031665;28;20395;-76
2023/10/29 09:15:06;;;;;;;24.73;3.80;;;;;;;;;;5047833;28;20499;-75
2023/10/29 09:17:33;;;;;;;21.88;3.42;;;;;;;;;;5049100;28;20152;-76
2023/10/29 09:20:00;;;;;;;19.27;3.55;;;;;;;;;;5032101;28;20499;-74
2023/10/29 09:22:27;;;;;;;14.93;3.22;;;;;;;;;;5047671;28;20048;-74
2023/10/29 09:24:54;;;;;;;15.82;2.67;;;;;;;;;;5044117;28;20045;-75
2023/10/29 09:27:20;;;;;;;20.30;2.88;;;;;;;;;;5045560;28;20041;-77
2023/10/29 09:29:48;;;;;;;13.60;2.33;;;;;;;;;;5049372;28;20537;-74
2023/10/29 09:32:16;;;;;;;22.73;3.13;;;;;;;;;;5053777;28;20441;-75
2023/10/29 09:34:43;;;;;;;15.63;2.67;;;;;;;;;;5058098;28;20037;-75
2023/10/29 09:37:09;;;;;;;13.93;2.75;;;;;;;;;;5052704;28;20043;-74
2023/10/29 09:39:37;;;;;;;10.50;2.08;;;;;;;;;;5047804;28;20040;-75
2023/10/29 09:42:08;;;;;;;17.83;2.40;;;;;;;;;;5043848;28;20041;-74
2023/10/29 09:44:40;;;;;;;74.22;35.45;;;;;;;;;;5049505;28;20472;-75
2023/10/29 09:47:13;;;;;;;20.30;3.88;;;;;;;;;;5048026;28;20380;-75
2023/10/29 09:49:40;;;;;;;20.10;2.88;;;;;;;;;;5046674;28;20045;-75
2023/10/29 09:52:08;;;;;;;17.25;2.80;;;;;;;;;;5048230;28;20152;-75
2023/10/29 09:54:38;;;;;;;25.77;3.88;;;;;;;;;;5043971;28;20132;-74
2023/10/29 09:57:06;;;;;;;21.23;2.90;;;;;;;;;;5045748;28;20375;-75
2023/10/29 09:59:33;;;;;;;27.10;7.65;;;;;;;;;;5046747;28;20467;-74
2023/10/29 10:02:02;;;;;;;28.90;10.52;;;;;;;;;;5047922;28;20127;-75
2023/10/29 10:04:29;;;;;;;26.65;10.40;;;;;;;;;;5031492;28;20049;-75
2023/10/29 10:06:58;;;;;;;28.88;6.10;;;;;;;;;;5031825;28;20075;-75
2023/10/29 10:09:25;;;;;;;36.20;14.38;;;;;;;;;;5047743;28;20059;-75
2023/10/29 10:12:05;;;;;;;27.83;4.35;;;;;;;;;;5031993;28;20088;-75
2023/10/29 10:14:32;;;;;;;25.13;6.05;;;;;;;;;;5044756;28;20045;-76
2023/10/29 10:17:10;;;;;;;29.63;8.23;;;;;;;;;;5050318;28;20053;-75
2023/10/29 10:19:37;;;;;;;26.70;6.00;;;;;;;;;;5063254;28;20486;-75
2023/10/29 10:22:04;;;;;;;19.98;4.45;;;;;;;;;;5062117;28;20163;-76
2023/10/29 10:24:43;;;;;;;61.10;33.53;;;;;;;;;;5070385;28;20139;-76
2023/10/29 10:27:14;;;;;;;21.30;4.20;;;;;;;;;;5062927;28;20442;-76
2023/10/29 10:29:41;;;;;;;47.90;19.77;;;;;;;;;;5052523;28;20057;-75
2023/10/29 10:32:08;;;;;;;18.65;4.05;;;;;;;;;;5032281;28;20095;-77
2023/10/29 10:34:37;;;;;;;22.80;5.88;;;;;;;;;;5069688;28;20039;-75
2023/10/29 10:37:04;;;;;;;23.95;5.18;;;;;;;;;;5069861;28;20098;-75
2023/10/29 10:39:32;;;;;;;20.00;3.72;;;;;;;;;;5072245;28;20045;-75
2023/10/29 10:42:02;;;;;;;22.27;3.30;;;;;;;;;;5063890;28;20037;-74
2023/10/29 10:44:30;;;;;;;18.58;3.90;;;;;;;;;;5066237;28;20048;-75
2023/10/29 10:46:59;;;;;;;25.75;4.75;;;;;;;;;;5069757;28;20044;-76
2023/10/29 10:49:26;;;;;;;;;;;;;;;;;;5055193;28;20047;-77
2023/10/29 10:51:55;;;;;;;19.02;3.63;;;;;;;;;;5069141;28;19969;-74
2023/10/29 10:54:22;;;;;;;19.55;2.60;;;;;;;;;;5061843;28;20053;-75
2023/10/29 10:56:54;;;;;;;19.15;2.63;;;;;;;;;;5055558;28;20384;-75
2023/10/29 10:59:22;;;;;;;15.73;2.70;;;;;;;;;;5072095;28;20041;-74
2023/10/29 11:01:50;;;;;;;18.37;2.10;;;;;;;;;;5085144;28;20109;-75
2023/10/29 11:04:17;;;;;;;18.92;2.70;;;;;;;;;;5072328;28;20366;-75
2023/10/29 11:06:45;;;;;;;14.15;2.58;;;;;;;;;;5074157;28;20041;-75
2023/10/29 11:09:13;;;;;;;21.25;3.13;;;;;;;;;;5054982;28;20048;-75
2023/10/29 11:11:49;;;;;;;14.02;2.30;;;;;;;;;;5072083;28;20072;-76
2023/10/29 11:14:17;;;;;;;17.60;2.45;;;;;;;;;;5071712;28;20051;-74
2023/10/29 11:16:45;;;;;;;14.70;2.33;;;;;;;;;;5070962;28;20040;-74
2023/10/29 11:19:45;;;;;;;13.23;2.03;;;;;;;;;;5053462;28;20051;-75
2023/10/29 11:22:13;;;;;;;16.65;2.55;;;;;;;;;;5068108;28;20064;-74
2023/10/29 11:24:40;;;;;;;14.20;2.80;;;;;;;;;;5071446;28;20127;-74
2023/10/29 11:27:35;;;;;;;14.85;2.53;;;;;;;;;;5071405;28;20123;-74
2023/10/29 11:30:16;;;;;;;12.95;2.10;;;;;;;;;;5071559;28;20523;-74
2023/10/29 11:32:45;;;;;;;15.88;2.03;;;;;;;;;;5059589;28;20116;-74
2023/10/29 11:35:15;;;;;;;14.23;2.30;;;;;;;;;;5074478;28;20072;-74
2023/10/29 11:37:43;;;;;;;19.58;2.30;;;;;;;;;;5068765;28;20509;-74
2023/10/29 11:40:31;;;;;;;18.37;2.40;;;;;;;;;;5078057;28;20064;-75
2023/10/29 11:43:19;;;;;;;18.27;2.40;;;;;;;;;;5057181;28;20053;-73
2023/10/29 11:45:52;;;;;;;16.77;2.08;;;;;;;;;;5056915;28;20045;-74
2023/10/29 11:48:19;;;;;;;18.10;2.72;;;;;;;;;;5059552;28;20056;-75
2023/10/29 11:51:05;;;;;;;16.95;3.33;;;;;;;;;;5071152;28;20048;-75
2023/10/29 11:53:33;;;;;;;17.65;3.05;;;;;;;;;;5071528;28;20037;-74
2023/10/29 11:56:04;;;;;;;18.38;2.90;;;;;;;;;;5072499;28;20419;-75
2023/10/29 11:58:31;;;;;;;20.20;2.42;;;;;;;;;;5076140;28;20051;-74
2023/10/29 12:00:59;;;;;;;16.73;2.70;;;;;;;;;;5073467;28;20174;-75
2023/10/29 12:03:26;;;;;;;15.23;2.38;;;;;;;;;;5067241;28;20060;-74
2023/10/29 12:05:53;;;;;;;14.63;2.63;;;;;;;;;;5081024;28;20036;-74
2023/10/29 12:08:20;;;;;;;14.63;2.15;;;;;;;;;;5074859;28;20055;-74
2023/10/29 12:10:49;;;;;;;20.10;2.95;;;;;;;;;;5077771;28;20040;-74
2023/10/29 12:13:19;;;;;;;23.20;2.97;;;;;;;;;;5072266;28;20036;-74
2023/10/29 12:15:47;;;;;;;17.00;2.42;;;;;;;;;;5073626;28;20548;-77
2023/10/29 12:18:20;;;;;;;22.75;3.25;;;;;;;;;;5078738;28;20041;-74
2023/10/29 12:20:47;;;;;;;19.70;3.55;;;;;;;;;;5066289;28;20119;-74
2023/10/29 12:23:16;;;;;;;26.65;3.55;;;;;;;;;;5068924;28;20052;-74
2023/10/29 12:25:43;;;;;;;21.98;2.88;;;;;;;;;;5055750;28;20039;-75
2023/10/29 12:28:12;;;;;;;13.98;2.15;;;;;;;;;;5073818;28;20052;-74
2023/10/29 12:30:50;;;;;;;18.50;2.15;;;;;;;;;;5065311;28;20037;-75
2023/10/29 12:33:25;;;;;;;13.40;2.13;;;;;;;;;;5066478;28;20048;-74
2023/10/29 12:35:55;;;;;;;13.05;2.42;;;;;;;;;;5077908;28;20294;-75
2023/10/29 12:38:23;;;;;;;15.32;2.70;;;;;;;;;;5070000;28;20450;-74
2023/10/29 12:41:14;;;;;;;20.07;2.50;;;;;;;;;;5071033;28;20040;-74
2023/10/29 12:43:47;;;;;;;15.68;2.00;;;;;;;;;;5071713;28;20079;-73
2023/10/29 12:46:15;;;;;;;11.43;2.08;;;;;;;;;;5051578;28;20045;-74
2023/10/29 12:49:01;;;;;;;16.73;2.33;;;;;;;;;;5077276;28;20044;-74
2023/10/29 12:51:39;;;;;;;13.27;2.05;;;;;;;;;;5051493;28;20379;-75
2023/10/29 12:54:23;;;;;;;10.60;1.40;;;;;;;;;;5070883;28;20067;-74
2023/10/29 12:56:58;;;;;;;18.45;2.42;;;;;;;;;;5071610;28;20064;-74
2023/10/29 12:59:27;;;;;;;14.07;1.58;;;;;;;;;;5069291;28;20041;-74
2023/10/29 13:01:56;;;;;;;11.90;2.08;;;;;;;;;;5083183;28;20040;-74
2023/10/29 13:04:24;;;;;;;9.48;1.30;;;;;;;;;;5070981;28;20049;-74
2023/10/29 13:06:55;;;;;;;10.45;1.33;;;;;;;;;;5058762;28;20075;-74
2023/10/29 13:09:25;;;;;;;9.57;1.38;;;;;;;;;;5066485;28;20037;-74
2023/10/29 13:11:52;;;;;;;11.43;2.10;;;;;;;;;;5069363;28;20049;-74
2023/10/29 13:14:22;;;;;;;15.50;1.63;;;;;;;;;;5058868;28;20045;-75
2023/10/29 13:16:52;;;;;;;9.50;1.73;;;;;;;;;;5048545;28;20041;-75
2023/10/29 13:19:23;;;;;;;8.75;1.58;;;;;;;;;;5053935;28;20466;-75
2023/10/29 13:21:51;;;;;;;9.23;1.52;;;;;;;;;;5049558;28;20459;-74
2023/10/29 13:24:19;;;;;;;;;;;;;;;;;;5057728;28;20063;-74
2023/10/29 13:26:47;;;;;;;9.60;1.27;;;;;;;;;;5060873;28;19964;-75
2023/10/29 13:29:14;;;;;;;8.82;1.20;;;;;;;;;;5066583;28;20072;-74
2023/10/29 13:31:40;;;;;;;5.70;0.88;;;;;;;;;;5069134;28;20044;-75
2023/10/29 13:34:08;;;;;;;5.22;0.95;;;;;;;;;;5070747;28;20506;-74
2023/10/29 13:36:37;;;;;;;7.77;1.00;;;;;;;;;;5069517;28;20054;-74
2023/10/29 13:39:07;;;;;;;6.90;1.00;;;;;;;;;;5073662;28;20036;-74
2023/10/29 13:41:34;;;;;;;3.28;0.80;;;;;;;;;;5070667;28;20040;-74
2023/10/29 13:44:01;;;;;;;6.80;1.30;;;;;;;;;;5071072;28;20032;-72
2023/10/29 13:46:28;;;;;;;7.95;0.82;;;;;;;;;;5074013;28;20045;-75
2023/10/29 13:48:55;;;;;;;3.80;0.80;;;;;;;;;;5070889;28;20429;-74
2023/10/29 13:51:22;;;;;;;9.73;1.48;;;;;;;;;;5068151;28;20045;-72
2023/10/29 13:53:50;;;;;;;9.25;1.60;;;;;;;;;;5056103;28;20045;-71
2023/10/29 13:56:17;;;;;;;5.22;0.85;;;;;;;;;;5039007;28;20452;-71
2023/10/29 13:58:43;;;;;;;7.68;1.83;;;;;;;;;;5040939;28;20037;-72
2023/10/29 14:01:17;;;;;;;14.60;1.65;;;;;;;;;;5052399;28;20083;-73
2023/10/29 14:03:45;;;;;;;19.30;2.38;;;;;;;;;;5053129;28;20123;-74
2023/10/29 14:06:13;;;;;;;10.23;1.63;;;;;;;;;;5065780;28;20040;-73
2023/10/29 14:08:40;;;;;;;10.75;1.40;;;;;;;;;;5074697;28;20148;-69
2023/10/29 14:11:06;;;;;;;8.63;1.30;;;;;;;;;;5053137;28;20044;-72
2023/10/29 14:13:33;;;;;;;13.88;1.67;;;;;;;;;;5073464;28;20049;-70
2023/10/29 14:16:01;;;;;;;8.73;1.27;;;;;;;;;;5074835;28;20102;-71
2023/10/29 14:18:28;;;;;;;7.93;1.70;;;;;;;;;;5073819;28;20052;-72
2023/10/29 14:20:56;;;;;;;12.18;1.63;;;;;;;;;;5074266;28;20048;-71
2023/10/29 14:23:29;;;;;;;11.50;1.80;;;;;;;;;;5073911;28;20049;-70
2023/10/29 14:25:55;;;;;;;13.15;1.98;;;;;;;;;;5074321;28;20426;-72
2023/10/29 14:28:22;;;;;;;16.35;1.73;;;;;;;;;;5071794;28;20044;-73
2023/10/29 14:30:49;;;;;;;14.00;1.92;;;;;;;;;;5078400;28;20036;-71
2023/10/29 14:33:16;;;;;;;10.48;2.15;;;;;;;;;;5037642;28;20091;-72
2023/10/29 14:35:43;;;;;;;15.85;2.35;;;;;;;;;;5057264;28;20106;-72
2023/10/29 14:38:10;;;;;;;21.52;2.97;;;;;;;;;;5073493;28;20040;-71
2023/10/29 14:40:37;;;;;;;20.48;2.35;;;;;;;;;;5068205;28;20076;-75